sensor_id;sensor_type;location;lat;lon;timestamp;P1;durP1;ratioP1;P2;durP2;ratioP2
8219;SDS011;4151;51.110;7.020;2023-07-30T00:02:01;9.10;;;4.60;;
8219;SDS011;4151;51.110;7.020;2023-07-30T00:04:27;11.33;;;5.57;;
8219;SDS011;4151;51.110;7.020;2023-07-30T00:06:52;12.60;;;5.37;;
8219;SDS011;4151;51.110;7.020;2023-07-30T00:09:18;9.33;;;5.30;;
8219;SDS011;4151;51.110;7.020;2023-07-30T00:11:43;11.90;;;5.50;;
8219;SDS011;4151;51.110;7.020;2023-07-30T00:14:09;11.80;;;4.80;;
8219;SDS011;4151;51.110;7.020;2023-07-30T00:16:34;7.47;;;4.90;;
8219;SDS011;4151;51.110;7.020;2023-07-30T00:19:00;17.93;;;4.47;;
8219;SDS011;4151;51.110;7.020;2023-07-30T00:21:25;9.53;;;5.30;;
8219;SDS011;4151;51.110;7.020;2023-07-30T00:23:51;10.03;;;4.70;;
8219;SDS011;4151;51.110;7.020;2023-07-30T00:26:16;9.23;;;4.30;;
8219;SDS011;4151;51.110;7.020;2023-07-30T00:28:42;10.60;;;5.00;;
8219;SDS011;4151;51.110;7.020;2023-07-30T00:31:08;10.80;;;4.27;;
8219;SDS011;4151;51.110;7.020;2023-07-30T00:33:33;10.20;;;5.37;;
8219;SDS011;4151;51.110;7.020;2023-07-30T00:35:59;9.73;;;5.07;;
8219;SDS011;4151;51.110;7.020;2023-07-30T00:38:24;9.83;;;4.57;;
8219;SDS011;4151;51.110;7.020;2023-07-30T00:40:50;10.53;;;4.77;;
8219;SDS011;4151;51.110;7.020;2023-07-30T00:43:15;10.53;;;4.50;;
8219;SDS011;4151;51.110;7.020;2023-07-30T00:45:42;12.10;;;4.70;;
8219;SDS011;4151;51.110;7.020;2023-07-30T00:48:09;9.13;;;4.30;;
8219;SDS011;4151;51.110;7.020;2023-07-30T00:50:36;7.30;;;4.87;;
8219;SDS011;4151;51.110;7.020;2023-07-30T00:53:02;9.73;;;3.90;;
8219;SDS011;4151;51.110;7.020;2023-07-30T00:55:28;11.53;;;5.10;;
8219;SDS011;4151;51.110;7.020;2023-07-30T00:57:54;8.00;;;5.10;;
8219;SDS011;4151;51.110;7.020;2023-07-30T01:00:19;13.43;;;5.10;;
8219;SDS011;4151;51.110;7.020;2023-07-30T01:02:47;13.13;;;5.27;;
8219;SDS011;4151;51.110;7.020;2023-07-30T01:05:12;17.40;;;5.70;;
8219;SDS011;4151;51.110;7.020;2023-07-30T01:07:38;11.73;;;4.80;;
8219;SDS011;4151;51.110;7.020;2023-07-30T01:10:03;13.23;;;5.10;;
8219;SDS011;4151;51.110;7.020;2023-07-30T01:12:30;8.53;;;4.53;;
8219;SDS011;4151;51.110;7.020;2023-07-30T01:14:57;12.73;;;5.13;;
8219;SDS011;4151;51.110;7.020;2023-07-30T01:17:23;7.30;;;5.20;;
8219;SDS011;4151;51.110;7.020;2023-07-30T01:19:49;8.33;;;4.50;;
8219;SDS011;4151;51.110;7.020;2023-07-30T01:22:19;13.13;;;4.87;;
8219;SDS011;4151;51.110;7.020;2023-07-30T01:24:46;8.43;;;3.97;;
8219;SDS011;4151;51.110;7.020;2023-07-30T01:27:14;8.93;;;3.60;;
8219;SDS011;4151;51.110;7.020;2023-07-30T01:32:26;7.80;;;4.37;;
8219;SDS011;4151;51.110;7.020;2023-07-30T01:34:54;11.50;;;3.77;;
8219;SDS011;4151;51.110;7.020;2023-07-30T01:37:22;9.30;;;3.90;;
8219;SDS011;4151;51.110;7.020;2023-07-30T01:39:48;7.73;;;3.43;;
8219;SDS011;4151;51.110;7.020;2023-07-30T01:42:14;6.70;;;3.83;;
8219;SDS011;4151;51.110;7.020;2023-07-30T01:44:40;14.67;;;5.63;;
8219;SDS011;4151;51.110;7.020;2023-07-30T01:47:06;7.10;;;4.30;;
8219;SDS011;4151;51.110;7.020;2023-07-30T01:49:31;9.70;;;5.10;;
8219;SDS011;4151;51.110;7.020;2023-07-30T01:51:57;9.63;;;3.90;;
8219;SDS011;4151;51.110;7.020;2023-07-30T01:54:23;11.23;;;4.90;;
8219;SDS011;4151;51.110;7.020;2023-07-30T01:56:49;6.90;;;3.80;;
8219;SDS011;4151;51.110;7.020;2023-07-30T01:59:15;8.63;;;4.07;;
8219;SDS011;4151;51.110;7.020;2023-07-30T02:01:41;6.43;;;3.60;;
8219;SDS011;4151;51.110;7.020;2023-07-30T02:04:07;13.57;;;3.93;;
8219;SDS011;4151;51.110;7.020;2023-07-30T02:06:32;10.83;;;3.83;;
8219;SDS011;4151;51.110;7.020;2023-07-30T02:08:58;10.00;;;3.93;;
8219;SDS011;4151;51.110;7.020;2023-07-30T02:11:24;14.17;;;4.10;;
8219;SDS011;4151;51.110;7.020;2023-07-30T02:13:49;7.17;;;3.60;;
8219;SDS011;4151;51.110;7.020;2023-07-30T02:16:15;20.50;;;3.80;;
8219;SDS011;4151;51.110;7.020;2023-07-30T02:18:40;12.80;;;3.30;;
8219;SDS011;4151;51.110;7.020;2023-07-30T02:21:06;6.50;;;4.40;;
8219;SDS011;4151;51.110;7.020;2023-07-30T02:23:31;5.23;;;3.30;;
8219;SDS011;4151;51.110;7.020;2023-07-30T02:25:57;7.00;;;3.70;;
8219;SDS011;4151;51.110;7.020;2023-07-30T02:28:22;7.60;;;3.93;;
8219;SDS011;4151;51.110;7.020;2023-07-30T02:30:48;17.47;;;4.00;;
8219;SDS011;4151;51.110;7.020;2023-07-30T02:33:13;7.70;;;3.30;;
8219;SDS011;4151;51.110;7.020;2023-07-30T02:35:39;6.80;;;3.30;;
8219;SDS011;4151;51.110;7.020;2023-07-30T02:38:05;7.80;;;3.70;;
8219;SDS011;4151;51.110;7.020;2023-07-30T02:40:30;8.70;;;3.40;;
8219;SDS011;4151;51.110;7.020;2023-07-30T02:42:56;8.80;;;3.43;;
8219;SDS011;4151;51.110;7.020;2023-07-30T02:45:22;6.10;;;3.20;;
8219;SDS011;4151;51.110;7.020;2023-07-30T02:47:47;16.10;;;3.87;;
8219;SDS011;4151;51.110;7.020;2023-07-30T02:50:13;5.67;;;3.23;;
8219;SDS011;4151;51.110;7.020;2023-07-30T02:52:38;6.73;;;3.83;;
8219;SDS011;4151;51.110;7.020;2023-07-30T02:55:04;5.50;;;3.57;;
8219;SDS011;4151;51.110;7.020;2023-07-30T02:57:30;4.13;;;3.10;;
8219;SDS011;4151;51.110;7.020;2023-07-30T02:59:55;4.57;;;3.03;;
8219;SDS011;4151;51.110;7.020;2023-07-30T03:02:21;10.10;;;3.50;;
8219;SDS011;4151;51.110;7.020;2023-07-30T03:04:46;4.80;;;3.37;;
8219;SDS011;4151;51.110;7.020;2023-07-30T03:07:12;4.20;;;3.30;;
8219;SDS011;4151;51.110;7.020;2023-07-30T03:09:37;6.37;;;3.53;;
8219;SDS011;4151;51.110;7.020;2023-07-30T03:12:03;10.93;;;3.90;;
8219;SDS011;4151;51.110;7.020;2023-07-30T03:14:29;4.30;;;3.17;;
8219;SDS011;4151;51.110;7.020;2023-07-30T03:16:54;6.13;;;3.50;;
8219;SDS011;4151;51.110;7.020;2023-07-30T03:19:20;12.23;;;3.77;;
8219;SDS011;4151;51.110;7.020;2023-07-30T03:21:45;6.07;;;3.37;;
8219;SDS011;4151;51.110;7.020;2023-07-30T03:24:11;7.83;;;4.17;;
8219;SDS011;4151;51.110;7.020;2023-07-30T03:26:37;5.13;;;3.50;;
8219;SDS011;4151;51.110;7.020;2023-07-30T03:29:02;5.83;;;3.73;;
8219;SDS011;4151;51.110;7.020;2023-07-30T03:31:28;12.63;;;3.97;;
8219;SDS011;4151;51.110;7.020;2023-07-30T03:33:53;10.47;;;4.40;;
8219;SDS011;4151;51.110;7.020;2023-07-30T03:36:19;7.37;;;3.70;;
8219;SDS011;4151;51.110;7.020;2023-07-30T03:38:45;8.43;;;3.50;;
8219;SDS011;4151;51.110;7.020;2023-07-30T03:41:10;5.03;;;3.07;;
8219;SDS011;4151;51.110;7.020;2023-07-30T03:43:36;9.73;;;3.40;;
8219;SDS011;4151;51.110;7.020;2023-07-30T03:46:02;5.27;;;3.20;;
8219;SDS011;4151;51.110;7.020;2023-07-30T03:48:28;10.67;;;4.43;;
8219;SDS011;4151;51.110;7.020;2023-07-30T03:50:54;13.53;;;4.33;;
8219;SDS011;4151;51.110;7.020;2023-07-30T03:53:20;12.63;;;3.30;;
8219;SDS011;4151;51.110;7.020;2023-07-30T03:55:45;5.13;;;2.87;;
8219;SDS011;4151;51.110;7.020;2023-07-30T03:58:11;5.30;;;3.27;;
8219;SDS011;4151;51.110;7.020;2023-07-30T04:00:37;6.30;;;3.30;;
8219;SDS011;4151;51.110;7.020;2023-07-30T04:03:02;17.63;;;3.17;;
8219;SDS011;4151;51.110;7.020;2023-07-30T04:05:29;11.10;;;2.97;;
8219;SDS011;4151;51.110;7.020;2023-07-30T04:07:55;9.43;;;3.70;;
8219;SDS011;4151;51.110;7.020;2023-07-30T04:10:21;7.53;;;2.57;;
8219;SDS011;4151;51.110;7.020;2023-07-30T04:12:46;10.30;;;2.57;;
8219;SDS011;4151;51.110;7.020;2023-07-30T04:15:12;6.73;;;2.70;;
8219;SDS011;4151;51.110;7.020;2023-07-30T04:17:39;10.13;;;3.20;;
8219;SDS011;4151;51.110;7.020;2023-07-30T04:20:05;7.93;;;2.93;;
8219;SDS011;4151;51.110;7.020;2023-07-30T04:22:31;8.17;;;3.27;;
8219;SDS011;4151;51.110;7.020;2023-07-30T04:24:56;8.93;;;2.90;;
8219;SDS011;4151;51.110;7.020;2023-07-30T04:27:22;12.43;;;3.20;;
8219;SDS011;4151;51.110;7.020;2023-07-30T04:29:47;7.40;;;3.37;;
8219;SDS011;4151;51.110;7.020;2023-07-30T04:32:13;10.00;;;4.63;;
8219;SDS011;4151;51.110;7.020;2023-07-30T04:34:39;11.20;;;2.67;;
8219;SDS011;4151;51.110;7.020;2023-07-30T04:37:05;14.13;;;2.97;;
8219;SDS011;4151;51.110;7.020;2023-07-30T04:39:34;6.80;;;2.10;;
8219;SDS011;4151;51.110;7.020;2023-07-30T04:42:00;10.43;;;2.93;;
8219;SDS011;4151;51.110;7.020;2023-07-30T04:44:26;7.43;;;1.60;;
8219;SDS011;4151;51.110;7.020;2023-07-30T04:46:51;9.57;;;2.30;;
8219;SDS011;4151;51.110;7.020;2023-07-30T04:49:17;6.10;;;1.90;;
8219;SDS011;4151;51.110;7.020;2023-07-30T04:51:42;7.50;;;1.60;;
8219;SDS011;4151;51.110;7.020;2023-07-30T04:54:08;4.40;;;2.13;;
8219;SDS011;4151;51.110;7.020;2023-07-30T04:56:33;7.10;;;1.80;;
8219;SDS011;4151;51.110;7.020;2023-07-30T04:58:59;5.87;;;1.43;;
8219;SDS011;4151;51.110;7.020;2023-07-30T05:01:25;3.20;;;1.63;;
8219;SDS011;4151;51.110;7.020;2023-07-30T05:03:51;6.00;;;1.77;;
8219;SDS011;4151;51.110;7.020;2023-07-30T05:06:16;8.07;;;1.73;;
8219;SDS011;4151;51.110;7.020;2023-07-30T05:08:42;8.57;;;1.40;;
8219;SDS011;4151;51.110;7.020;2023-07-30T05:11:07;7.50;;;2.00;;
8219;SDS011;4151;51.110;7.020;2023-07-30T05:13:33;9.43;;;2.50;;
8219;SDS011;4151;51.110;7.020;2023-07-30T05:15:58;5.20;;;1.70;;
8219;SDS011;4151;51.110;7.020;2023-07-30T05:18:24;4.50;;;1.90;;
8219;SDS011;4151;51.110;7.020;2023-07-30T05:20:50;11.20;;;2.00;;
8219;SDS011;4151;51.110;7.020;2023-07-30T05:23:15;6.33;;;2.00;;
8219;SDS011;4151;51.110;7.020;2023-07-30T05:25:41;13.80;;;1.90;;
8219;SDS011;4151;51.110;7.020;2023-07-30T05:28:06;6.13;;;2.37;;
8219;SDS011;4151;51.110;7.020;2023-07-30T05:30:32;10.60;;;2.37;;
8219;SDS011;4151;51.110;7.020;2023-07-30T05:32:57;7.20;;;2.50;;
8219;SDS011;4151;51.110;7.020;2023-07-30T05:35:23;4.30;;;1.70;;
8219;SDS011;4151;51.110;7.020;2023-07-30T05:37:48;8.70;;;1.90;;
8219;SDS011;4151;51.110;7.020;2023-07-30T05:40:14;9.30;;;2.17;;
8219;SDS011;4151;51.110;7.020;2023-07-30T05:42:40;5.33;;;1.60;;
8219;SDS011;4151;51.110;7.020;2023-07-30T05:45:05;9.50;;;2.20;;
8219;SDS011;4151;51.110;7.020;2023-07-30T05:47:31;11.60;;;2.00;;
8219;SDS011;4151;51.110;7.020;2023-07-30T05:49:57;7.23;;;1.80;;
8219;SDS011;4151;51.110;7.020;2023-07-30T05:52:23;12.53;;;2.23;;
8219;SDS011;4151;51.110;7.020;2023-07-30T05:54:49;11.47;;;2.23;;
8219;SDS011;4151;51.110;7.020;2023-07-30T05:57:14;6.20;;;1.50;;
8219;SDS011;4151;51.110;7.020;2023-07-30T05:59:40;11.73;;;1.77;;
8219;SDS011;4151;51.110;7.020;2023-07-30T06:02:05;13.27;;;2.30;;
8219;SDS011;4151;51.110;7.020;2023-07-30T06:04:31;6.70;;;2.07;;
8219;SDS011;4151;51.110;7.020;2023-07-30T06:07:01;6.60;;;2.00;;
8219;SDS011;4151;51.110;7.020;2023-07-30T06:09:27;12.37;;;2.67;;
8219;SDS011;4151;51.110;7.020;2023-07-30T06:11:53;5.27;;;1.37;;
8219;SDS011;4151;51.110;7.020;2023-07-30T06:14:19;3.30;;;1.40;;
8219;SDS011;4151;51.110;7.020;2023-07-30T06:16:45;4.03;;;1.47;;
8219;SDS011;4151;51.110;7.020;2023-07-30T06:19:10;5.63;;;1.73;;
8219;SDS011;4151;51.110;7.020;2023-07-30T06:21:36;8.03;;;1.87;;
8219;SDS011;4151;51.110;7.020;2023-07-30T06:24:02;5.80;;;2.13;;
8219;SDS011;4151;51.110;7.020;2023-07-30T06:26:27;6.10;;;1.60;;
8219;SDS011;4151;51.110;7.020;2023-07-30T06:28:53;9.73;;;1.73;;
8219;SDS011;4151;51.110;7.020;2023-07-30T06:31:19;18.17;;;3.03;;
8219;SDS011;4151;51.110;7.020;2023-07-30T06:33:44;8.03;;;2.03;;
8219;SDS011;4151;51.110;7.020;2023-07-30T06:36:10;14.80;;;2.60;;
8219;SDS011;4151;51.110;7.020;2023-07-30T06:38:35;5.67;;;1.60;;
8219;SDS011;4151;51.110;7.020;2023-07-30T06:41:01;3.63;;;1.60;;
8219;SDS011;4151;51.110;7.020;2023-07-30T06:43:26;7.90;;;1.80;;
8219;SDS011;4151;51.110;7.020;2023-07-30T06:45:52;7.93;;;1.63;;
8219;SDS011;4151;51.110;7.020;2023-07-30T06:48:19;8.07;;;2.43;;
8219;SDS011;4151;51.110;7.020;2023-07-30T06:50:45;4.47;;;1.80;;
8219;SDS011;4151;51.110;7.020;2023-07-30T06:53:10;6.10;;;1.33;;
8219;SDS011;4151;51.110;7.020;2023-07-30T06:55:36;9.37;;;1.73;;
8219;SDS011;4151;51.110;7.020;2023-07-30T06:58:01;6.33;;;2.13;;
8219;SDS011;4151;51.110;7.020;2023-07-30T07:00:27;11.33;;;1.80;;
8219;SDS011;4151;51.110;7.020;2023-07-30T07:02:52;3.33;;;1.70;;
8219;SDS011;4151;51.110;7.020;2023-07-30T07:05:18;7.40;;;1.57;;
8219;SDS011;4151;51.110;7.020;2023-07-30T07:07:44;4.93;;;1.80;;
8219;SDS011;4151;51.110;7.020;2023-07-30T07:10:10;10.37;;;2.80;;
8219;SDS011;4151;51.110;7.020;2023-07-30T07:12:36;10.93;;;2.03;;
8219;SDS011;4151;51.110;7.020;2023-07-30T07:15:03;8.63;;;1.60;;
8219;SDS011;4151;51.110;7.020;2023-07-30T07:17:29;4.20;;;1.80;;
8219;SDS011;4151;51.110;7.020;2023-07-30T07:19:54;7.50;;;2.40;;
8219;SDS011;4151;51.110;7.020;2023-07-30T07:22:20;9.63;;;2.33;;
8219;SDS011;4151;51.110;7.020;2023-07-30T07:24:46;7.80;;;2.50;;
8219;SDS011;4151;51.110;7.020;2023-07-30T07:27:11;8.27;;;2.30;;
8219;SDS011;4151;51.110;7.020;2023-07-30T07:29:37;9.47;;;2.00;;
8219;SDS011;4151;51.110;7.020;2023-07-30T07:32:03;7.93;;;2.30;;
8219;SDS011;4151;51.110;7.020;2023-07-30T07:34:28;7.77;;;2.00;;
8219;SDS011;4151;51.110;7.020;2023-07-30T07:36:54;10.80;;;2.33;;
8219;SDS011;4151;51.110;7.020;2023-07-30T07:39:20;15.83;;;2.87;;
8219;SDS011;4151;51.110;7.020;2023-07-30T07:41:45;16.37;;;3.60;;
8219;SDS011;4151;51.110;7.020;2023-07-30T07:44:11;10.70;;;1.97;;
8219;SDS011;4151;51.110;7.020;2023-07-30T07:46:36;12.10;;;2.50;;
8219;SDS011;4151;51.110;7.020;2023-07-30T07:49:02;11.53;;;2.10;;
8219;SDS011;4151;51.110;7.020;2023-07-30T07:51:27;13.13;;;2.43;;
8219;SDS011;4151;51.110;7.020;2023-07-30T07:53:53;10.60;;;2.43;;
8219;SDS011;4151;51.110;7.020;2023-07-30T07:56:19;7.70;;;2.30;;
8219;SDS011;4151;51.110;7.020;2023-07-30T07:58:44;13.80;;;2.90;;
8219;SDS011;4151;51.110;7.020;2023-07-30T08:01:10;9.27;;;2.37;;
8219;SDS011;4151;51.110;7.020;2023-07-30T08:03:35;9.23;;;2.10;;
8219;SDS011;4151;51.110;7.020;2023-07-30T08:06:01;9.80;;;2.97;;
8219;SDS011;4151;51.110;7.020;2023-07-30T08:08:26;15.17;;;2.60;;
8219;SDS011;4151;51.110;7.020;2023-07-30T08:10:52;10.97;;;2.07;;
8219;SDS011;4151;51.110;7.020;2023-07-30T08:13:18;13.60;;;3.10;;
8219;SDS011;4151;51.110;7.020;2023-07-30T08:15:45;8.77;;;2.47;;
8219;SDS011;4151;51.110;7.020;2023-07-30T08:18:10;10.53;;;2.33;;
8219;SDS011;4151;51.110;7.020;2023-07-30T08:20:36;11.57;;;2.77;;
8219;SDS011;4151;51.110;7.020;2023-07-30T08:23:02;11.50;;;2.70;;
8219;SDS011;4151;51.110;7.020;2023-07-30T08:25:27;11.03;;;3.17;;
8219;SDS011;4151;51.110;7.020;2023-07-30T08:27:53;12.80;;;3.07;;
8219;SDS011;4151;51.110;7.020;2023-07-30T08:30:18;10.10;;;2.53;;
8219;SDS011;4151;51.110;7.020;2023-07-30T08:32:44;21.77;;;2.97;;
8219;SDS011;4151;51.110;7.020;2023-07-30T08:35:09;17.50;;;3.87;;
8219;SDS011;4151;51.110;7.020;2023-07-30T08:37:35;12.97;;;2.83;;
8219;SDS011;4151;51.110;7.020;2023-07-30T08:40:01;7.37;;;2.47;;
8219;SDS011;4151;51.110;7.020;2023-07-30T08:42:27;13.80;;;3.33;;
8219;SDS011;4151;51.110;7.020;2023-07-30T08:44:53;15.20;;;3.37;;
8219;SDS011;4151;51.110;7.020;2023-07-30T08:47:19;16.70;;;2.87;;
8219;SDS011;4151;51.110;7.020;2023-07-30T08:49:45;16.50;;;3.23;;
8219;SDS011;4151;51.110;7.020;2023-07-30T08:52:10;21.57;;;3.40;;
8219;SDS011;4151;51.110;7.020;2023-07-30T08:54:36;9.10;;;3.10;;
8219;SDS011;4151;51.110;7.020;2023-07-30T08:57:03;13.03;;;2.63;;
8219;SDS011;4151;51.110;7.020;2023-07-30T09:00:12;9.20;;;2.63;;
8219;SDS011;4151;51.110;7.020;2023-07-30T09:03:05;13.67;;;3.00;;
8219;SDS011;4151;51.110;7.020;2023-07-30T09:05:10;12.20;;;3.30;;
8219;SDS011;4151;51.110;7.020;2023-07-30T09:07:36;9.47;;;2.67;;
8219;SDS011;4151;51.110;7.020;2023-07-30T09:10:02;16.13;;;3.53;;
8219;SDS011;4151;51.110;7.020;2023-07-30T09:12:31;16.80;;;3.10;;
8219;SDS011;4151;51.110;7.020;2023-07-30T09:14:57;11.13;;;3.30;;
8219;SDS011;4151;51.110;7.020;2023-07-30T09:17:23;27.17;;;4.77;;
8219;SDS011;4151;51.110;7.020;2023-07-30T09:19:50;9.20;;;2.73;;
8219;SDS011;4151;51.110;7.020;2023-07-30T09:22:19;16.37;;;3.63;;
8219;SDS011;4151;51.110;7.020;2023-07-30T09:24:57;21.37;;;3.13;;
8219;SDS011;4151;51.110;7.020;2023-07-30T09:27:24;9.80;;;3.63;;
8219;SDS011;4151;51.110;7.020;2023-07-30T09:29:58;16.13;;;3.27;;
8219;SDS011;4151;51.110;7.020;2023-07-30T09:32:34;11.20;;;2.40;;
8219;SDS011;4151;51.110;7.020;2023-07-30T09:35:03;15.93;;;3.80;;
8219;SDS011;4151;51.110;7.020;2023-07-30T09:37:33;20.17;;;3.10;;
8219;SDS011;4151;51.110;7.020;2023-07-30T09:40:03;21.03;;;3.10;;
8219;SDS011;4151;51.110;7.020;2023-07-30T09:42:30;12.80;;;3.00;;
8219;SDS011;4151;51.110;7.020;2023-07-30T09:44:58;12.10;;;2.80;;
8219;SDS011;4151;51.110;7.020;2023-07-30T09:47:26;11.93;;;3.10;;
8219;SDS011;4151;51.110;7.020;2023-07-30T09:49:52;16.17;;;2.93;;
8219;SDS011;4151;51.110;7.020;2023-07-30T09:52:19;9.17;;;2.43;;
8219;SDS011;4151;51.110;7.020;2023-07-30T09:54:47;9.73;;;3.10;;
8219;SDS011;4151;51.110;7.020;2023-07-30T09:57:15;9.60;;;2.57;;
8219;SDS011;4151;51.110;7.020;2023-07-30T09:59:40;17.10;;;3.17;;
8219;SDS011;4151;51.110;7.020;2023-07-30T10:02:06;17.10;;;2.60;;
8219;SDS011;4151;51.110;7.020;2023-07-30T10:04:35;8.40;;;2.50;;
8219;SDS011;4151;51.110;7.020;2023-07-30T10:07:06;11.17;;;2.47;;
8219;SDS011;4151;51.110;7.020;2023-07-30T10:09:39;14.67;;;2.57;;
8219;SDS011;4151;51.110;7.020;2023-07-30T10:12:10;4.73;;;2.10;;
8219;SDS011;4151;51.110;7.020;2023-07-30T10:14:40;8.47;;;2.63;;
8219;SDS011;4151;51.110;7.020;2023-07-30T10:17:09;15.60;;;2.60;;
8219;SDS011;4151;51.110;7.020;2023-07-30T10:19:35;13.33;;;3.10;;
8219;SDS011;4151;51.110;7.020;2023-07-30T10:24:55;22.87;;;2.60;;
8219;SDS011;4151;51.110;7.020;2023-07-30T10:27:24;13.70;;;2.13;;
8219;SDS011;4151;51.110;7.020;2023-07-30T10:30:11;8.00;;;2.20;;
8219;SDS011;4151;51.110;7.020;2023-07-30T10:32:41;15.20;;;2.43;;
8219;SDS011;4151;51.110;7.020;2023-07-30T10:35:34;7.33;;;2.20;;
8219;SDS011;4151;51.110;7.020;2023-07-30T10:38:14;10.20;;;2.27;;
8219;SDS011;4151;51.110;7.020;2023-07-30T10:41:01;14.37;;;2.80;;
8219;SDS011;4151;51.110;7.020;2023-07-30T10:43:42;5.40;;;1.70;;
8219;SDS011;4151;51.110;7.020;2023-07-30T10:46:11;8.13;;;1.90;;
8219;SDS011;4151;51.110;7.020;2023-07-30T10:48:38;4.40;;;1.20;;
8219;SDS011;4151;51.110;7.020;2023-07-30T10:51:06;8.60;;;2.10;;
8219;SDS011;4151;51.110;7.020;2023-07-30T10:53:34;8.57;;;2.10;;
8219;SDS011;4151;51.110;7.020;2023-07-30T10:56:04;9.87;;;2.10;;
8219;SDS011;4151;51.110;7.020;2023-07-30T10:58:31;7.50;;;2.07;;
8219;SDS011;4151;51.110;7.020;2023-07-30T11:00:57;6.23;;;2.13;;
8219;SDS011;4151;51.110;7.020;2023-07-30T11:03:24;11.27;;;2.67;;
8219;SDS011;4151;51.110;7.020;2023-07-30T11:05:51;10.80;;;2.10;;
8219;SDS011;4151;51.110;7.020;2023-07-30T11:08:17;10.20;;;2.03;;
8219;SDS011;4151;51.110;7.020;2023-07-30T11:10:45;7.33;;;2.17;;
8219;SDS011;4151;51.110;7.020;2023-07-30T11:13:15;12.43;;;2.97;;
8219;SDS011;4151;51.110;7.020;2023-07-30T11:15:42;16.10;;;2.47;;
8219;SDS011;4151;51.110;7.020;2023-07-30T11:18:13;10.63;;;2.57;;
8219;SDS011;4151;51.110;7.020;2023-07-30T11:20:39;7.03;;;1.83;;
8219;SDS011;4151;51.110;7.020;2023-07-30T11:23:18;7.13;;;2.77;;
8219;SDS011;4151;51.110;7.020;2023-07-30T11:25:45;7.30;;;2.20;;
8219;SDS011;4151;51.110;7.020;2023-07-30T11:28:12;9.73;;;2.10;;
8219;SDS011;4151;51.110;7.020;2023-07-30T11:30:38;11.50;;;1.73;;
8219;SDS011;4151;51.110;7.020;2023-07-30T11:33:03;9.10;;;1.70;;
8219;SDS011;4151;51.110;7.020;2023-07-30T11:35:29;7.27;;;1.80;;
8219;SDS011;4151;51.110;7.020;2023-07-30T11:37:55;8.50;;;2.20;;
8219;SDS011;4151;51.110;7.020;2023-07-30T11:40:22;13.60;;;1.80;;
8219;SDS011;4151;51.110;7.020;2023-07-30T11:42:48;9.87;;;1.77;;
8219;SDS011;4151;51.110;7.020;2023-07-30T11:45:17;9.20;;;2.70;;
8219;SDS011;4151;51.110;7.020;2023-07-30T11:47:47;4.80;;;2.30;;
8219;SDS011;4151;51.110;7.020;2023-07-30T11:50:13;5.07;;;2.00;;
8219;SDS011;4151;51.110;7.020;2023-07-30T11:52:52;6.00;;;1.80;;
8219;SDS011;4151;51.110;7.020;2023-07-30T11:55:22;5.10;;;1.70;;
8219;SDS011;4151;51.110;7.020;2023-07-30T11:57:49;4.70;;;1.90;;
8219;SDS011;4151;51.110;7.020;2023-07-30T12:00:15;7.47;;;1.60;;
8219;SDS011;4151;51.110;7.020;2023-07-30T12:02:41;11.33;;;1.93;;
8219;SDS011;4151;51.110;7.020;2023-07-30T12:05:09;8.33;;;1.90;;
8219;SDS011;4151;51.110;7.020;2023-07-30T12:07:39;6.17;;;1.63;;
8219;SDS011;4151;51.110;7.020;2023-07-30T12:10:09;6.73;;;1.70;;
8219;SDS011;4151;51.110;7.020;2023-07-30T12:12:35;9.53;;;1.70;;
8219;SDS011;4151;51.110;7.020;2023-07-30T12:15:00;4.20;;;1.77;;
8219;SDS011;4151;51.110;7.020;2023-07-30T12:17:26;9.13;;;2.00;;
8219;SDS011;4151;51.110;7.020;2023-07-30T12:19:51;10.73;;;2.30;;
8219;SDS011;4151;51.110;7.020;2023-07-30T12:22:17;6.20;;;1.53;;
8219;SDS011;4151;51.110;7.020;2023-07-30T12:24:42;8.80;;;1.70;;
8219;SDS011;4151;51.110;7.020;2023-07-30T12:27:08;11.77;;;2.43;;
8219;SDS011;4151;51.110;7.020;2023-07-30T12:29:34;11.40;;;1.50;;
8219;SDS011;4151;51.110;7.020;2023-07-30T12:31:59;13.13;;;2.10;;
8219;SDS011;4151;51.110;7.020;2023-07-30T12:34:25;6.40;;;1.67;;
8219;SDS011;4151;51.110;7.020;2023-07-30T12:36:50;9.03;;;1.43;;
8219;SDS011;4151;51.110;7.020;2023-07-30T12:39:16;3.97;;;1.50;;
8219;SDS011;4151;51.110;7.020;2023-07-30T12:41:41;7.73;;;2.07;;
8219;SDS011;4151;51.110;7.020;2023-07-30T12:44:07;4.20;;;1.37;;
8219;SDS011;4151;51.110;7.020;2023-07-30T12:46:34;15.33;;;1.80;;
8219;SDS011;4151;51.110;7.020;2023-07-30T12:49:00;6.87;;;1.60;;
8219;SDS011;4151;51.110;7.020;2023-07-30T12:51:29;6.57;;;2.00;;
8219;SDS011;4151;51.110;7.020;2023-07-30T12:53:55;9.70;;;1.60;;
8219;SDS011;4151;51.110;7.020;2023-07-30T12:56:20;3.63;;;1.53;;
8219;SDS011;4151;51.110;7.020;2023-07-30T12:58:46;6.10;;;1.40;;
8219;SDS011;4151;51.110;7.020;2023-07-30T13:01:11;7.97;;;1.80;;
8219;SDS011;4151;51.110;7.020;2023-07-30T13:03:37;31.17;;;2.37;;
8219;SDS011;4151;51.110;7.020;2023-07-30T13:06:04;7.27;;;1.80;;
8219;SDS011;4151;51.110;7.020;2023-07-30T13:08:29;6.60;;;2.03;;
8219;SDS011;4151;51.110;7.020;2023-07-30T13:10:55;8.50;;;1.80;;
8219;SDS011;4151;51.110;7.020;2023-07-30T13:13:20;9.87;;;1.70;;
8219;SDS011;4151;51.110;7.020;2023-07-30T13:15:46;8.67;;;2.40;;
8219;SDS011;4151;51.110;7.020;2023-07-30T13:18:11;6.93;;;1.80;;
8219;SDS011;4151;51.110;7.020;2023-07-30T13:20:37;5.33;;;1.70;;
8219;SDS011;4151;51.110;7.020;2023-07-30T13:23:03;7.80;;;1.90;;
8219;SDS011;4151;51.110;7.020;2023-07-30T13:25:28;6.27;;;1.90;;
8219;SDS011;4151;51.110;7.020;2023-07-30T13:27:54;8.00;;;2.00;;
8219;SDS011;4151;51.110;7.020;2023-07-30T13:30:19;5.40;;;1.67;;
8219;SDS011;4151;51.110;7.020;2023-07-30T13:32:45;7.97;;;2.00;;
8219;SDS011;4151;51.110;7.020;2023-07-30T13:35:10;5.87;;;1.60;;
8219;SDS011;4151;51.110;7.020;2023-07-30T13:37:36;13.30;;;2.90;;
8219;SDS011;4151;51.110;7.020;2023-07-30T13:40:02;6.47;;;2.10;;
8219;SDS011;4151;51.110;7.020;2023-07-30T13:42:27;5.37;;;2.00;;
8219;SDS011;4151;51.110;7.020;2023-07-30T13:44:53;6.60;;;2.07;;
8219;SDS011;4151;51.110;7.020;2023-07-30T13:47:18;11.30;;;2.40;;
8219;SDS011;4151;51.110;7.020;2023-07-30T13:49:44;7.50;;;2.30;;
8219;SDS011;4151;51.110;7.020;2023-07-30T13:52:09;8.20;;;1.80;;
8219;SDS011;4151;51.110;7.020;2023-07-30T13:54:35;6.00;;;1.47;;
8219;SDS011;4151;51.110;7.020;2023-07-30T13:57:03;5.63;;;1.77;;
8219;SDS011;4151;51.110;7.020;2023-07-30T13:59:30;5.70;;;1.97;;
8219;SDS011;4151;51.110;7.020;2023-07-30T14:01:56;3.30;;;1.60;;
8219;SDS011;4151;51.110;7.020;2023-07-30T14:04:21;3.90;;;1.40;;
8219;SDS011;4151;51.110;7.020;2023-07-30T14:06:47;7.27;;;1.90;;
8219;SDS011;4151;51.110;7.020;2023-07-30T14:09:12;5.50;;;1.80;;
8219;SDS011;4151;51.110;7.020;2023-07-30T14:11:38;5.20;;;1.80;;
8219;SDS011;4151;51.110;7.020;2023-07-30T14:14:06;9.63;;;2.40;;
8219;SDS011;4151;51.110;7.020;2023-07-30T14:16:31;6.30;;;1.70;;
8219;SDS011;4151;51.110;7.020;2023-07-30T14:18:57;15.03;;;5.53;;
8219;SDS011;4151;51.110;7.020;2023-07-30T14:21:23;11.67;;;2.00;;
8219;SDS011;4151;51.110;7.020;2023-07-30T14:23:48;6.03;;;1.70;;
8219;SDS011;4151;51.110;7.020;2023-07-30T14:26:14;4.27;;;1.40;;
8219;SDS011;4151;51.110;7.020;2023-07-30T14:28:39;10.87;;;1.90;;
8219;SDS011;4151;51.110;7.020;2023-07-30T14:31:05;5.57;;;1.90;;
8219;SDS011;4151;51.110;7.020;2023-07-30T14:33:30;10.80;;;2.17;;
8219;SDS011;4151;51.110;7.020;2023-07-30T14:35:56;7.97;;;2.23;;
8219;SDS011;4151;51.110;7.020;2023-07-30T14:38:22;7.33;;;2.33;;
8219;SDS011;4151;51.110;7.020;2023-07-30T14:40:47;5.20;;;1.60;;
8219;SDS011;4151;51.110;7.020;2023-07-30T14:43:13;4.13;;;1.67;;
8219;SDS011;4151;51.110;7.020;2023-07-30T14:45:38;5.83;;;2.33;;
8219;SDS011;4151;51.110;7.020;2023-07-30T14:48:04;5.77;;;2.13;;
8219;SDS011;4151;51.110;7.020;2023-07-30T14:50:29;17.00;;;2.07;;
8219;SDS011;4151;51.110;7.020;2023-07-30T14:52:55;7.50;;;1.57;;
8219;SDS011;4151;51.110;7.020;2023-07-30T14:55:20;4.80;;;1.40;;
8219;SDS011;4151;51.110;7.020;2023-07-30T14:57:46;7.23;;;2.10;;
8219;SDS011;4151;51.110;7.020;2023-07-30T15:00:12;7.77;;;2.03;;
8219;SDS011;4151;51.110;7.020;2023-07-30T15:02:39;5.33;;;1.47;;
8219;SDS011;4151;51.110;7.020;2023-07-30T15:05:05;2.77;;;1.47;;
8219;SDS011;4151;51.110;7.020;2023-07-30T15:07:31;5.33;;;1.40;;
8219;SDS011;4151;51.110;7.020;2023-07-30T15:09:57;4.17;;;1.50;;
8219;SDS011;4151;51.110;7.020;2023-07-30T15:12:22;9.30;;;1.57;;